sensor_id;sensor_type;location;lat;lon;timestamp;P1;durP1;ratioP1;P2;durP2;ratioP2
11151;SDS011;5630;49.342;10.802;2023-12-20T00:02:16;24.10;;;15.37;;
11151;SDS011;5630;49.342;10.802;2023-12-20T00:04:41;9.13;;;6.10;;
11151;SDS011;5630;49.342;10.802;2023-12-20T00:07:07;7.77;;;5.77;;
11151;SDS011;5630;49.342;10.802;2023-12-20T00:09:32;9.23;;;6.27;;
11151;SDS011;5630;49.342;10.802;2023-12-20T00:11:58;9.73;;;6.03;;
11151;SDS011;5630;49.342;10.802;2023-12-20T00:14:24;8.37;;;5.70;;
11151;SDS011;5630;49.342;10.802;2023-12-20T00:16:49;9.47;;;5.70;;
11151;SDS011;5630;49.342;10.802;2023-12-20T00:19:15;9.50;;;5.77;;
11151;SDS011;5630;49.342;10.802;2023-12-20T00:21:40;6.47;;;5.30;;
11151;SDS011;5630;49.342;10.802;2023-12-20T00:24:06;10.20;;;5.60;;
11151;SDS011;5630;49.342;10.802;2023-12-20T00:26:31;8.87;;;5.67;;
11151;SDS011;5630;49.342;10.802;2023-12-20T00:28:57;6.63;;;5.33;;
11151;SDS011;5630;49.342;10.802;2023-12-20T00:31:22;6.60;;;5.80;;
11151;SDS011;5630;49.342;10.802;2023-12-20T00:33:48;8.20;;;5.80;;
11151;SDS011;5630;49.342;10.802;2023-12-20T00:36:14;7.83;;;5.63;;
11151;SDS011;5630;49.342;10.802;2023-12-20T00:38:39;8.53;;;5.77;;
11151;SDS011;5630;49.342;10.802;2023-12-20T00:41:05;8.33;;;5.60;;
11151;SDS011;5630;49.342;10.802;2023-12-20T00:43:30;8.70;;;5.67;;
11151;SDS011;5630;49.342;10.802;2023-12-20T00:45:56;5.53;;;4.97;;
11151;SDS011;5630;49.342;10.802;2023-12-20T00:48:22;7.80;;;5.27;;
11151;SDS011;5630;49.342;10.802;2023-12-20T00:50:48;7.77;;;4.57;;
11151;SDS011;5630;49.342;10.802;2023-12-20T00:53:13;5.53;;;4.30;;
11151;SDS011;5630;49.342;10.802;2023-12-20T00:55:39;6.43;;;4.93;;
11151;SDS011;5630;49.342;10.802;2023-12-20T00:58:05;5.93;;;4.40;;
11151;SDS011;5630;49.342;10.802;2023-12-20T01:00:31;7.30;;;4.53;;
11151;SDS011;5630;49.342;10.802;2023-12-20T01:02:56;4.93;;;4.13;;
11151;SDS011;5630;49.342;10.802;2023-12-20T01:05:22;4.60;;;3.70;;
11151;SDS011;5630;49.342;10.802;2023-12-20T01:07:48;4.03;;;3.70;;
11151;SDS011;5630;49.342;10.802;2023-12-20T01:10:14;3.80;;;3.30;;
11151;SDS011;5630;49.342;10.802;2023-12-20T01:12:40;3.80;;;3.30;;
11151;SDS011;5630;49.342;10.802;2023-12-20T01:15:05;5.53;;;3.47;;
11151;SDS011;5630;49.342;10.802;2023-12-20T01:17:31;3.43;;;2.87;;
11151;SDS011;5630;49.342;10.802;2023-12-20T01:19:57;4.33;;;2.73;;
11151;SDS011;5630;49.342;10.802;2023-12-20T01:22:23;5.97;;;2.80;;
11151;SDS011;5630;49.342;10.802;2023-12-20T01:24:48;3.67;;;2.80;;
11151;SDS011;5630;49.342;10.802;2023-12-20T01:27:14;2.37;;;2.17;;
11151;SDS011;5630;49.342;10.802;2023-12-20T01:29:40;3.10;;;2.40;;
11151;SDS011;5630;49.342;10.802;2023-12-20T01:32:05;3.63;;;2.50;;
11151;SDS011;5630;49.342;10.802;2023-12-20T01:34:31;2.97;;;2.40;;
11151;SDS011;5630;49.342;10.802;2023-12-20T01:36:57;2.77;;;2.37;;
11151;SDS011;5630;49.342;10.802;2023-12-20T01:39:22;2.33;;;2.13;;
11151;SDS011;5630;49.342;10.802;2023-12-20T01:41:48;2.47;;;2.27;;
11151;SDS011;5630;49.342;10.802;2023-12-20T01:44:14;2.57;;;2.07;;
11151;SDS011;5630;49.342;10.802;2023-12-20T01:46:39;2.53;;;2.00;;
11151;SDS011;5630;49.342;10.802;2023-12-20T01:49:06;2.83;;;2.10;;
11151;SDS011;5630;49.342;10.802;2023-12-20T01:51:31;2.50;;;2.10;;
11151;SDS011;5630;49.342;10.802;2023-12-20T01:53:58;2.03;;;1.83;;
11151;SDS011;5630;49.342;10.802;2023-12-20T01:56:25;2.07;;;1.87;;
11151;SDS011;5630;49.342;10.802;2023-12-20T01:58:52;2.40;;;2.20;;
11151;SDS011;5630;49.342;10.802;2023-12-20T02:01:19;2.20;;;2.00;;
11151;SDS011;5630;49.342;10.802;2023-12-20T02:03:44;2.53;;;1.90;;
11151;SDS011;5630;49.342;10.802;2023-12-20T02:06:10;1.87;;;1.73;;
11151;SDS011;5630;49.342;10.802;2023-12-20T02:08:36;1.97;;;1.77;;
11151;SDS011;5630;49.342;10.802;2023-12-20T02:11:02;2.30;;;2.00;;
11151;SDS011;5630;49.342;10.802;2023-12-20T02:13:28;3.03;;;2.40;;
11151;SDS011;5630;49.342;10.802;2023-12-20T02:15:54;2.20;;;1.90;;
11151;SDS011;5630;49.342;10.802;2023-12-20T02:18:20;1.80;;;1.70;;
11151;SDS011;5630;49.342;10.802;2023-12-20T02:20:46;1.60;;;1.50;;
11151;SDS011;5630;49.342;10.802;2023-12-20T02:23:11;1.50;;;1.40;;
11151;SDS011;5630;49.342;10.802;2023-12-20T02:25:37;3.20;;;1.30;;
11151;SDS011;5630;49.342;10.802;2023-12-20T02:28:02;1.90;;;1.67;;
11151;SDS011;5630;49.342;10.802;2023-12-20T02:30:29;1.20;;;1.10;;
11151;SDS011;5630;49.342;10.802;2023-12-20T02:32:55;1.50;;;1.40;;
11151;SDS011;5630;49.342;10.802;2023-12-20T02:35:21;1.57;;;1.47;;
11151;SDS011;5630;49.342;10.802;2023-12-20T02:37:47;1.40;;;1.30;;
11151;SDS011;5630;49.342;10.802;2023-12-20T02:40:12;1.40;;;1.10;;
11151;SDS011;5630;49.342;10.802;2023-12-20T02:42:38;1.60;;;1.40;;
11151;SDS011;5630;49.342;10.802;2023-12-20T02:45:04;1.50;;;1.40;;
11151;SDS011;5630;49.342;10.802;2023-12-20T02:47:30;1.33;;;1.23;;
11151;SDS011;5630;49.342;10.802;2023-12-20T02:49:55;1.80;;;1.30;;
11151;SDS011;5630;49.342;10.802;2023-12-20T02:52:21;1.00;;;1.00;;
11151;SDS011;5630;49.342;10.802;2023-12-20T02:54:50;1.20;;;1.10;;
11151;SDS011;5630;49.342;10.802;2023-12-20T02:57:16;1.20;;;1.10;;
11151;SDS011;5630;49.342;10.802;2023-12-20T02:59:41;1.43;;;1.20;;
11151;SDS011;5630;49.342;10.802;2023-12-20T03:02:07;2.30;;;1.10;;
11151;SDS011;5630;49.342;10.802;2023-12-20T03:04:32;1.20;;;1.10;;
11151;SDS011;5630;49.342;10.802;2023-12-20T03:06:58;2.40;;;1.13;;
11151;SDS011;5630;49.342;10.802;2023-12-20T03:09:23;1.30;;;1.20;;
11151;SDS011;5630;49.342;10.802;2023-12-20T03:11:49;1.13;;;1.10;;
11151;SDS011;5630;49.342;10.802;2023-12-20T03:14:15;1.33;;;1.20;;
11151;SDS011;5630;49.342;10.802;2023-12-20T03:16:40;1.17;;;1.03;;
11151;SDS011;5630;49.342;10.802;2023-12-20T03:19:06;1.10;;;1.10;;
11151;SDS011;5630;49.342;10.802;2023-12-20T03:21:31;1.20;;;1.10;;
11151;SDS011;5630;49.342;10.802;2023-12-20T03:23:57;1.10;;;1.10;;
11151;SDS011;5630;49.342;10.802;2023-12-20T03:26:23;1.30;;;1.20;;
11151;SDS011;5630;49.342;10.802;2023-12-20T03:28:48;1.70;;;1.33;;
11151;SDS011;5630;49.342;10.802;2023-12-20T03:31:14;1.40;;;1.10;;
11151;SDS011;5630;49.342;10.802;2023-12-20T03:33:39;1.30;;;1.20;;
11151;SDS011;5630;49.342;10.802;2023-12-20T03:36:05;1.43;;;1.33;;
11151;SDS011;5630;49.342;10.802;2023-12-20T03:38:31;1.73;;;1.43;;
11151;SDS011;5630;49.342;10.802;2023-12-20T03:40:56;1.60;;;1.50;;
11151;SDS011;5630;49.342;10.802;2023-12-20T03:43:22;2.00;;;1.60;;
11151;SDS011;5630;49.342;10.802;2023-12-20T03:45:47;1.40;;;1.30;;
11151;SDS011;5630;49.342;10.802;2023-12-20T03:48:13;2.30;;;1.63;;
11151;SDS011;5630;49.342;10.802;2023-12-20T03:50:38;2.07;;;1.50;;
11151;SDS011;5630;49.342;10.802;2023-12-20T03:53:04;1.60;;;1.50;;
11151;SDS011;5630;49.342;10.802;2023-12-20T03:55:30;2.40;;;2.00;;
11151;SDS011;5630;49.342;10.802;2023-12-20T03:57:55;3.53;;;3.00;;
11151;SDS011;5630;49.342;10.802;2023-12-20T04:00:21;5.53;;;3.23;;
11151;SDS011;5630;49.342;10.802;2023-12-20T04:02:46;3.30;;;2.17;;
11151;SDS011;5630;49.342;10.802;2023-12-20T04:05:12;2.77;;;2.30;;
11151;SDS011;5630;49.342;10.802;2023-12-20T04:07:38;2.80;;;2.30;;
11151;SDS011;5630;49.342;10.802;2023-12-20T04:10:04;2.37;;;2.17;;
11151;SDS011;5630;49.342;10.802;2023-12-20T04:12:30;3.03;;;2.50;;
11151;SDS011;5630;49.342;10.802;2023-12-20T04:14:57;2.47;;;2.10;;
11151;SDS011;5630;49.342;10.802;2023-12-20T04:17:22;2.53;;;2.00;;
11151;SDS011;5630;49.342;10.802;2023-12-20T04:19:48;2.30;;;2.00;;
11151;SDS011;5630;49.342;10.802;2023-12-20T04:22:14;2.77;;;2.40;;
11151;SDS011;5630;49.342;10.802;2023-12-20T04:24:40;2.70;;;2.30;;
11151;SDS011;5630;49.342;10.802;2023-12-20T04:27:07;2.30;;;2.10;;
11151;SDS011;5630;49.342;10.802;2023-12-20T04:29:33;2.10;;;1.90;;
11151;SDS011;5630;49.342;10.802;2023-12-20T04:31:58;2.30;;;2.10;;
11151;SDS011;5630;49.342;10.802;2023-12-20T04:34:24;2.20;;;2.00;;
11151;SDS011;5630;49.342;10.802;2023-12-20T04:36:50;1.70;;;1.60;;
11151;SDS011;5630;49.342;10.802;2023-12-20T04:39:15;1.90;;;1.67;;
11151;SDS011;5630;49.342;10.802;2023-12-20T04:41:41;2.47;;;1.93;;
11151;SDS011;5630;49.342;10.802;2023-12-20T04:44:07;1.90;;;1.80;;
11151;SDS011;5630;49.342;10.802;2023-12-20T04:46:32;2.10;;;1.90;;
11151;SDS011;5630;49.342;10.802;2023-12-20T04:48:58;2.00;;;1.80;;
11151;SDS011;5630;49.342;10.802;2023-12-20T04:51:23;1.83;;;1.60;;
11151;SDS011;5630;49.342;10.802;2023-12-20T04:53:49;1.87;;;1.70;;
11151;SDS011;5630;49.342;10.802;2023-12-20T04:56:15;2.10;;;1.90;;
11151;SDS011;5630;49.342;10.802;2023-12-20T04:58:41;2.83;;;2.30;;
11151;SDS011;5630;49.342;10.802;2023-12-20T05:01:08;3.10;;;1.90;;
11151;SDS011;5630;49.342;10.802;2023-12-20T05:03:34;2.10;;;1.90;;
11151;SDS011;5630;49.342;10.802;2023-12-20T05:06:00;1.63;;;1.53;;
11151;SDS011;5630;49.342;10.802;2023-12-20T05:08:25;1.47;;;1.37;;
11151;SDS011;5630;49.342;10.802;2023-12-20T05:10:54;1.60;;;1.50;;
11151;SDS011;5630;49.342;10.802;2023-12-20T05:13:20;1.80;;;1.70;;
11151;SDS011;5630;49.342;10.802;2023-12-20T05:15:45;1.60;;;1.50;;
11151;SDS011;5630;49.342;10.802;2023-12-20T05:18:11;1.80;;;1.60;;
11151;SDS011;5630;49.342;10.802;2023-12-20T05:20:38;1.60;;;1.50;;
11151;SDS011;5630;49.342;10.802;2023-12-20T05:23:03;1.57;;;1.47;;
11151;SDS011;5630;49.342;10.802;2023-12-20T05:25:29;1.60;;;1.40;;
11151;SDS011;5630;49.342;10.802;2023-12-20T05:27:54;1.27;;;1.17;;
11151;SDS011;5630;49.342;10.802;2023-12-20T05:30:21;2.10;;;1.80;;
11151;SDS011;5630;49.342;10.802;2023-12-20T05:32:46;1.67;;;1.33;;
11151;SDS011;5630;49.342;10.802;2023-12-20T05:35:12;1.53;;;1.43;;
11151;SDS011;5630;49.342;10.802;2023-12-20T05:37:38;1.43;;;1.33;;
11151;SDS011;5630;49.342;10.802;2023-12-20T05:40:03;1.40;;;1.30;;
11151;SDS011;5630;49.342;10.802;2023-12-20T05:42:30;1.67;;;1.57;;
11151;SDS011;5630;49.342;10.802;2023-12-20T05:44:55;1.30;;;1.20;;
11151;SDS011;5630;49.342;10.802;2023-12-20T05:47:21;1.50;;;1.40;;
11151;SDS011;5630;49.342;10.802;2023-12-20T05:49:49;1.33;;;1.23;;
11151;SDS011;5630;49.342;10.802;2023-12-20T05:52:15;2.83;;;1.50;;
11151;SDS011;5630;49.342;10.802;2023-12-20T05:54:40;1.50;;;1.40;;
11151;SDS011;5630;49.342;10.802;2023-12-20T05:57:06;1.50;;;1.40;;
11151;SDS011;5630;49.342;10.802;2023-12-20T05:59:32;1.40;;;1.30;;
11151;SDS011;5630;49.342;10.802;2023-12-20T06:01:57;2.53;;;1.60;;
11151;SDS011;5630;49.342;10.802;2023-12-20T06:04:23;1.57;;;1.47;;
11151;SDS011;5630;49.342;10.802;2023-12-20T06:06:54;1.77;;;1.53;;
11151;SDS011;5630;49.342;10.802;2023-12-20T06:09:19;1.90;;;1.80;;
11151;SDS011;5630;49.342;10.802;2023-12-20T06:11:45;2.10;;;1.90;;
11151;SDS011;5630;49.342;10.802;2023-12-20T06:14:53;1.70;;;1.60;;
11151;SDS011;5630;49.342;10.802;2023-12-20T06:17:19;1.90;;;1.80;;
11151;SDS011;5630;49.342;10.802;2023-12-20T06:19:44;2.47;;;2.27;;
11151;SDS011;5630;49.342;10.802;2023-12-20T06:22:13;3.80;;;2.20;;
11151;SDS011;5630;49.342;10.802;2023-12-20T06:24:39;2.50;;;2.30;;
11151;SDS011;5630;49.342;10.802;2023-12-20T06:27:04;2.70;;;2.50;;
11151;SDS011;5630;49.342;10.802;2023-12-20T06:29:30;2.50;;;2.30;;
11151;SDS011;5630;49.342;10.802;2023-12-20T06:31:56;2.80;;;2.50;;
11151;SDS011;5630;49.342;10.802;2023-12-20T06:34:21;3.03;;;2.83;;
11151;SDS011;5630;49.342;10.802;2023-12-20T06:36:47;3.10;;;2.90;;
11151;SDS011;5630;49.342;10.802;2023-12-20T06:39:12;3.60;;;3.30;;
11151;SDS011;5630;49.342;10.802;2023-12-20T06:41:39;4.27;;;3.40;;
11151;SDS011;5630;49.342;10.802;2023-12-20T06:44:04;4.90;;;4.40;;
11151;SDS011;5630;49.342;10.802;2023-12-20T06:46:30;3.77;;;3.47;;
11151;SDS011;5630;49.342;10.802;2023-12-20T06:48:56;3.50;;;3.20;;
11151;SDS011;5630;49.342;10.802;2023-12-20T06:51:21;4.27;;;3.83;;
11151;SDS011;5630;49.342;10.802;2023-12-20T06:53:50;3.80;;;3.50;;
11151;SDS011;5630;49.342;10.802;2023-12-20T06:56:18;3.90;;;3.50;;
11151;SDS011;5630;49.342;10.802;2023-12-20T06:58:44;4.50;;;4.10;;
11151;SDS011;5630;49.342;10.802;2023-12-20T07:01:13;3.83;;;3.53;;
11151;SDS011;5630;49.342;10.802;2023-12-20T07:03:39;3.67;;;3.37;;
11151;SDS011;5630;49.342;10.802;2023-12-20T07:06:06;3.67;;;3.37;;
11151;SDS011;5630;49.342;10.802;2023-12-20T07:08:31;3.87;;;3.57;;
11151;SDS011;5630;49.342;10.802;2023-12-20T07:10:57;4.00;;;3.60;;
11151;SDS011;5630;49.342;10.802;2023-12-20T07:13:22;3.90;;;3.60;;
11151;SDS011;5630;49.342;10.802;2023-12-20T07:15:48;3.50;;;3.20;;
11151;SDS011;5630;49.342;10.802;2023-12-20T07:18:14;3.90;;;3.60;;
11151;SDS011;5630;49.342;10.802;2023-12-20T07:20:39;4.33;;;3.50;;
11151;SDS011;5630;49.342;10.802;2023-12-20T07:23:05;4.03;;;3.70;;
11151;SDS011;5630;49.342;10.802;2023-12-20T07:25:30;3.87;;;3.57;;
11151;SDS011;5630;49.342;10.802;2023-12-20T07:27:59;4.37;;;3.97;;
11151;SDS011;5630;49.342;10.802;2023-12-20T07:30:24;3.87;;;3.57;;
11151;SDS011;5630;49.342;10.802;2023-12-20T07:32:50;4.00;;;3.70;;
11151;SDS011;5630;49.342;10.802;2023-12-20T07:35:17;4.10;;;3.63;;
11151;SDS011;5630;49.342;10.802;2023-12-20T07:37:42;4.60;;;4.10;;
11151;SDS011;5630;49.342;10.802;2023-12-20T07:40:09;4.40;;;4.00;;
11151;SDS011;5630;49.342;10.802;2023-12-20T07:42:34;4.90;;;4.50;;
11151;SDS011;5630;49.342;10.802;2023-12-20T07:45:00;8.40;;;6.80;;
11151;SDS011;5630;49.342;10.802;2023-12-20T07:47:26;6.60;;;6.00;;
11151;SDS011;5630;49.342;10.802;2023-12-20T07:49:51;5.80;;;5.30;;
11151;SDS011;5630;49.342;10.802;2023-12-20T07:52:17;6.30;;;5.70;;
11151;SDS011;5630;49.342;10.802;2023-12-20T07:54:44;4.60;;;4.20;;
11151;SDS011;5630;49.342;10.802;2023-12-20T07:57:10;4.00;;;3.70;;
11151;SDS011;5630;49.342;10.802;2023-12-20T07:59:36;3.83;;;3.53;;
11151;SDS011;5630;49.342;10.802;2023-12-20T08:02:01;4.83;;;4.37;;
11151;SDS011;5630;49.342;10.802;2023-12-20T08:04:27;4.43;;;4.03;;
11151;SDS011;5630;49.342;10.802;2023-12-20T08:06:52;4.23;;;3.83;;
11151;SDS011;5630;49.342;10.802;2023-12-20T08:09:18;5.10;;;4.60;;
11151;SDS011;5630;49.342;10.802;2023-12-20T08:11:47;4.70;;;4.30;;
11151;SDS011;5630;49.342;10.802;2023-12-20T08:14:13;4.80;;;4.30;;
11151;SDS011;5630;49.342;10.802;2023-12-20T08:16:39;5.23;;;4.83;;
11151;SDS011;5630;49.342;10.802;2023-12-20T08:19:04;5.30;;;4.80;;
11151;SDS011;5630;49.342;10.802;2023-12-20T08:21:30;5.40;;;4.90;;
11151;SDS011;5630;49.342;10.802;2023-12-20T08:23:55;5.47;;;4.97;;
11151;SDS011;5630;49.342;10.802;2023-12-20T08:26:21;6.67;;;5.23;;
11151;SDS011;5630;49.342;10.802;2023-12-20T08:28:48;5.50;;;4.70;;
11151;SDS011;5630;49.342;10.802;2023-12-20T08:31:14;5.40;;;4.90;;
11151;SDS011;5630;49.342;10.802;2023-12-20T08:33:41;5.00;;;4.60;;
11151;SDS011;5630;49.342;10.802;2023-12-20T08:36:11;4.80;;;4.40;;
11151;SDS011;5630;49.342;10.802;2023-12-20T08:38:36;4.07;;;3.77;;
11151;SDS011;5630;49.342;10.802;2023-12-20T08:41:02;4.47;;;4.07;;
11151;SDS011;5630;49.342;10.802;2023-12-20T08:43:30;4.87;;;4.37;;
11151;SDS011;5630;49.342;10.802;2023-12-20T08:45:56;4.17;;;3.87;;
11151;SDS011;5630;49.342;10.802;2023-12-20T08:48:22;4.33;;;3.90;;
11151;SDS011;5630;49.342;10.802;2023-12-20T08:50:47;9.33;;;6.70;;
11151;SDS011;5630;49.342;10.802;2023-12-20T08:53:15;3.23;;;2.93;;
11151;SDS011;5630;49.342;10.802;2023-12-20T08:55:41;3.77;;;3.40;;
11151;SDS011;5630;49.342;10.802;2023-12-20T08:58:07;6.57;;;4.60;;
11151;SDS011;5630;49.342;10.802;2023-12-20T09:00:33;5.67;;;4.70;;
11151;SDS011;5630;49.342;10.802;2023-12-20T09:02:59;5.33;;;4.83;;
11151;SDS011;5630;49.342;10.802;2023-12-20T09:05:25;15.13;;;7.97;;
11151;SDS011;5630;49.342;10.802;2023-12-20T09:07:50;20.10;;;12.07;;
11151;SDS011;5630;49.342;10.802;2023-12-20T09:10:16;10.47;;;7.63;;
11151;SDS011;5630;49.342;10.802;2023-12-20T09:12:46;6.33;;;4.23;;
11151;SDS011;5630;49.342;10.802;2023-12-20T09:15:16;5.17;;;3.03;;
11151;SDS011;5630;49.342;10.802;2023-12-20T09:17:41;4.53;;;3.50;;
11151;SDS011;5630;49.342;10.802;2023-12-20T09:20:08;6.40;;;4.00;;
11151;SDS011;5630;49.342;10.802;2023-12-20T09:22:34;5.77;;;2.50;;
11151;SDS011;5630;49.342;10.802;2023-12-20T09:25:00;2.93;;;2.50;;
11151;SDS011;5630;49.342;10.802;2023-12-20T09:27:27;8.90;;;2.50;;
11151;SDS011;5630;49.342;10.802;2023-12-20T09:29:52;5.83;;;2.30;;
11151;SDS011;5630;49.342;10.802;2023-12-20T09:32:19;4.67;;;1.70;;
11151;SDS011;5630;49.342;10.802;2023-12-20T09:34:45;4.40;;;2.30;;
11151;SDS011;5630;49.342;10.802;2023-12-20T09:37:12;5.60;;;2.97;;
11151;SDS011;5630;49.342;10.802;2023-12-20T09:39:38;3.17;;;2.33;;
11151;SDS011;5630;49.342;10.802;2023-12-20T09:42:04;6.00;;;2.30;;
11151;SDS011;5630;49.342;10.802;2023-12-20T09:44:31;3.80;;;2.00;;
11151;SDS011;5630;49.342;10.802;2023-12-20T09:46:59;4.10;;;1.90;;
11151;SDS011;5630;49.342;10.802;2023-12-20T09:49:28;5.13;;;2.00;;
11151;SDS011;5630;49.342;10.802;2023-12-20T09:51:55;4.03;;;2.50;;
11151;SDS011;5630;49.342;10.802;2023-12-20T09:54:21;7.87;;;2.13;;
11151;SDS011;5630;49.342;10.802;2023-12-20T09:56:48;7.20;;;2.20;;
11151;SDS011;5630;49.342;10.802;2023-12-20T09:59:14;3.60;;;1.73;;
11151;SDS011;5630;49.342;10.802;2023-12-20T10:01:40;8.50;;;2.30;;
11151;SDS011;5630;49.342;10.802;2023-12-20T10:04:06;4.17;;;1.80;;
11151;SDS011;5630;49.342;10.802;2023-12-20T10:06:43;5.50;;;2.90;;
11151;SDS011;5630;49.342;10.802;2023-12-20T10:09:10;4.23;;;1.83;;
11151;SDS011;5630;49.342;10.802;2023-12-20T10:11:36;5.23;;;2.13;;
11151;SDS011;5630;49.342;10.802;2023-12-20T10:14:08;5.07;;;1.90;;
11151;SDS011;5630;49.342;10.802;2023-12-20T10:16:36;6.60;;;1.80;;
11151;SDS011;5630;49.342;10.802;2023-12-20T10:19:01;4.80;;;1.83;;
11151;SDS011;5630;49.342;10.802;2023-12-20T10:21:27;4.70;;;2.47;;
11151;SDS011;5630;49.342;10.802;2023-12-20T10:23:55;4.43;;;2.00;;
11151;SDS011;5630;49.342;10.802;2023-12-20T10:26:25;4.67;;;2.50;;
11151;SDS011;5630;49.342;10.802;2023-12-20T10:28:55;6.50;;;2.30;;
11151;SDS011;5630;49.342;10.802;2023-12-20T10:33:55;4.33;;;2.40;;
11151;SDS011;5630;49.342;10.802;2023-12-20T10:36:21;4.43;;;2.00;;
11151;SDS011;5630;49.342;10.802;2023-12-20T10:38:48;6.13;;;3.03;;
11151;SDS011;5630;49.342;10.802;2023-12-20T10:41:17;5.93;;;2.03;;
11151;SDS011;5630;49.342;10.802;2023-12-20T10:43:49;6.30;;;2.77;;
11151;SDS011;5630;49.342;10.802;2023-12-20T10:46:16;5.20;;;2.33;;
11151;SDS011;5630;49.342;10.802;2023-12-20T10:48:44;7.40;;;2.50;;
11151;SDS011;5630;49.342;10.802;2023-12-20T10:51:11;6.13;;;2.10;;
11151;SDS011;5630;49.342;10.802;2023-12-20T10:53:39;5.23;;;2.20;;
11151;SDS011;5630;49.342;10.802;2023-12-20T10:56:06;8.63;;;3.17;;
11151;SDS011;5630;49.342;10.802;2023-12-20T10:58:34;11.90;;;2.73;;
11151;SDS011;5630;49.342;10.802;2023-12-20T11:01:04;7.20;;;2.20;;
11151;SDS011;5630;49.342;10.802;2023-12-20T11:03:32;7.27;;;3.23;;
11151;SDS011;5630;49.342;10.802;2023-12-20T11:06:03;4.43;;;2.90;;
11151;SDS011;5630;49.342;10.802;2023-12-20T11:08:55;4.07;;;2.20;;
11151;SDS011;5630;49.342;10.802;2023-12-20T11:14:15;4.80;;;2.27;;
11151;SDS011;5630;49.342;10.802;2023-12-20T11:16:45;4.93;;;2.40;;
11151;SDS011;5630;49.342;10.802;2023-12-20T11:19:11;8.27;;;3.03;;
11151;SDS011;5630;49.342;10.802;2023-12-20T11:21:39;5.63;;;2.53;;
11151;SDS011;5630;49.342;10.802;2023-12-20T11:24:05;7.80;;;2.80;;
11151;SDS011;5630;49.342;10.802;2023-12-20T11:26:31;10.83;;;2.90;;
11151;SDS011;5630;49.342;10.802;2023-12-20T11:37:21;6.60;;;2.60;;
11151;SDS011;5630;49.342;10.802;2023-12-20T11:39:56;8.20;;;2.87;;
11151;SDS011;5630;49.342;10.802;2023-12-20T11:42:27;9.60;;;5.30;;
11151;SDS011;5630;49.342;10.802;2023-12-20T11:44:53;10.30;;;4.17;;
11151;SDS011;5630;49.342;10.802;2023-12-20T11:47:18;9.83;;;5.83;;
11151;SDS011;5630;49.342;10.802;2023-12-20T11:49:47;8.50;;;4.50;;
11151;SDS011;5630;49.342;10.802;2023-12-20T11:52:13;7.50;;;4.37;;
11151;SDS011;5630;49.342;10.802;2023-12-20T11:54:39;7.67;;;4.03;;
11151;SDS011;5630;49.342;10.802;2023-12-20T11:57:04;5.97;;;3.30;;
11151;SDS011;5630;49.342;10.802;2023-12-20T11:59:30;7.63;;;4.10;;
11151;SDS011;5630;49.342;10.802;2023-12-20T12:01:56;12.63;;;6.47;;
11151;SDS011;5630;49.342;10.802;2023-12-20T12:04:25;8.10;;;5.07;;
11151;SDS011;5630;49.342;10.802;2023-12-20T12:06:54;11.17;;;4.00;;
11151;SDS011;5630;49.342;10.802;2023-12-20T12:09:20;6.90;;;4.20;;
11151;SDS011;5630;49.342;10.802;2023-12-20T12:11:45;6.33;;;4.70;;
11151;SDS011;5630;49.342;10.802;2023-12-20T12:14:11;7.80;;;3.30;;
11151;SDS011;5630;49.342;10.802;2023-12-20T12:16:37;9.43;;;4.90;;
11151;SDS011;5630;49.342;10.802;2023-12-20T12:19:02;12.43;;;5.00;;
11151;SDS011;5630;49.342;10.802;2023-12-20T12:21:29;14.57;;;8.43;;
11151;SDS011;5630;49.342;10.802;2023-12-20T12:24:05;11.10;;;7.13;;
11151;SDS011;5630;49.342;10.802;2023-12-20T12:26:34;8.83;;;5.00;;
11151;SDS011;5630;49.342;10.802;2023-12-20T12:29:00;7.23;;;4.17;;
11151;SDS011;5630;49.342;10.802;2023-12-20T12:31:25;8.00;;;3.83;;
11151;SDS011;5630;49.342;10.802;2023-12-20T12:33:51;8.13;;;3.40;;
11151;SDS011;5630;49.342;10.802;2023-12-20T12:36:17;9.93;;;4.23;;
11151;SDS011;5630;49.342;10.802;2023-12-20T12:38:43;5.53;;;3.50;;
11151;SDS011;5630;49.342;10.802;2023-12-20T12:41:09;8.70;;;3.57;;
11151;SDS011;5630;49.342;10.802;2023-12-20T12:43:37;9.43;;;4.73;;
11151;SDS011;5630;49.342;10.802;2023-12-20T12:46:03;8.23;;;3.63;;
11151;SDS011;5630;49.342;10.802;2023-12-20T12:48:28;6.23;;;3.50;;
11151;SDS011;5630;49.342;10.802;2023-12-20T12:50:54;9.60;;;3.53;;
11151;SDS011;5630;49.342;10.802;2023-12-20T12:53:23;7.10;;;3.00;;
11151;SDS011;5630;49.342;10.802;2023-12-20T12:55:50;3.93;;;2.93;;
11151;SDS011;5630;49.342;10.802;2023-12-20T12:58:16;8.10;;;2.97;;
11151;SDS011;5630;49.342;10.802;2023-12-20T13:00:41;4.70;;;3.20;;
11151;SDS011;5630;49.342;10.802;2023-12-20T13:03:07;13.20;;;3.70;;
11151;SDS011;5630;49.342;10.802;2023-12-20T13:05:33;6.33;;;3.47;;
11151;SDS011;5630;49.342;10.802;2023-12-20T13:07:59;10.10;;;3.40;;
11151;SDS011;5630;49.342;10.802;2023-12-20T13:10:24;6.27;;;3.60;;
11151;SDS011;5630;49.342;10.802;2023-12-20T13:12:50;7.63;;;4.40;;
11151;SDS011;5630;49.342;10.802;2023-12-20T13:15:15;10.67;;;4.07;;
11151;SDS011;5630;49.342;10.802;2023-12-20T13:17:41;13.63;;;5.60;;
11151;SDS011;5630;49.342;10.802;2023-12-20T13:20:07;24.93;;;19.23;;
11151;SDS011;5630;49.342;10.802;2023-12-20T13:22:33;10.30;;;5.87;;
11151;SDS011;5630;49.342;10.802;2023-12-20T13:24:58;11.33;;;6.27;;
11151;SDS011;5630;49.342;10.802;2023-12-20T13:27:24;6.17;;;3.57;;
11151;SDS011;5630;49.342;10.802;2023-12-20T13:29:49;6.13;;;3.00;;
11151;SDS011;5630;49.342;10.802;2023-12-20T13:32:15;7.73;;;3.37;;
11151;SDS011;5630;49.342;10.802;2023-12-20T13:34:40;6.00;;;3.23;;
11151;SDS011;5630;49.342;10.802;2023-12-20T13:37:06;5.73;;;3.17;;
11151;SDS011;5630;49.342;10.802;2023-12-20T13:39:32;7.27;;;3.00;;
11151;SDS011;5630;49.342;10.802;2023-12-20T13:41:58;6.60;;;2.87;;
11151;SDS011;5630;49.342;10.802;2023-12-20T13:44:23;7.43;;;3.30;;
11151;SDS011;5630;49.342;10.802;2023-12-20T13:46:49;7.33;;;2.90;;
11151;SDS011;5630;49.342;10.802;2023-12-20T13:49:15;4.73;;;2.90;;
11151;SDS011;5630;49.342;10.802;2023-12-20T13:51:40;7.13;;;2.57;;
11151;SDS011;5630;49.342;10.802;2023-12-20T13:54:06;7.37;;;2.90;;
11151;SDS011;5630;49.342;10.802;2023-12-20T13:56:32;5.07;;;2.77;;
11151;SDS011;5630;49.342;10.802;2023-12-20T13:58:58;6.13;;;3.00;;
11151;SDS011;5630;49.342;10.802;2023-12-20T14:01:24;5.97;;;3.20;;
11151;SDS011;5630;49.342;10.802;2023-12-20T14:03:51;10.93;;;3.00;;
11151;SDS011;5630;49.342;10.802;2023-12-20T14:06:17;6.63;;;3.10;;
11151;SDS011;5630;49.342;10.802;2023-12-20T14:08:43;8.07;;;3.13;;
11151;SDS011;5630;49.342;10.802;2023-12-20T14:11:08;5.43;;;3.00;;
11151;SDS011;5630;49.342;10.802;2023-12-20T14:13:35;7.50;;;2.73;;
11151;SDS011;5630;49.342;10.802;2023-12-20T14:16:00;8.27;;;3.40;;
11151;SDS011;5630;49.342;10.802;2023-12-20T14:18:26;6.17;;;2.50;;
11151;SDS011;5630;49.342;10.802;2023-12-20T14:20:52;8.77;;;2.60;;
11151;SDS011;5630;49.342;10.802;2023-12-20T14:23:19;5.90;;;2.80;;
11151;SDS011;5630;49.342;10.802;2023-12-20T14:25:44;6.67;;;2.80;;
11151;SDS011;5630;49.342;10.802;2023-12-20T14:28:10;8.20;;;3.13;;
11151;SDS011;5630;49.342;10.802;2023-12-20T14:30:39;4.27;;;2.53;;
11151;SDS011;5630;49.342;10.802;2023-12-20T14:33:04;10.27;;;2.93;;
11151;SDS011;5630;49.342;10.802;2023-12-20T14:35:30;6.57;;;2.93;;
11151;SDS011;5630;49.342;10.802;2023-12-20T14:37:56;7.40;;;2.80;;
11151;SDS011;5630;49.342;10.802;2023-12-20T14:40:22;6.43;;;3.20;;
11151;SDS011;5630;49.342;10.802;2023-12-20T14:42:47;8.30;;;2.90;;
11151;SDS011;5630;49.342;10.802;2023-12-20T14:45:14;8.63;;;3.50;;
11151;SDS011;5630;49.342;10.802;2023-12-20T14:47:41;9.13;;;3.00;;
11151;SDS011;5630;49.342;10.802;2023-12-20T14:50:07;8.37;;;3.23;;
11151;SDS011;5630;49.342;10.802;2023-12-20T14:52:33;8.43;;;3.47;;
11151;SDS011;5630;49.342;10.802;2023-12-20T14:54:59;7.50;;;3.50;;
11151;SDS011;5630;49.342;10.802;2023-12-20T14:57:26;8.13;;;3.77;;